Change the Weather History Date:

Wednesday, October 3, 2012

  Actual Average (KAKO) Record (KAKO)
Temperature  
Mean Temperature 62 °F 55 °F  
Max Temperature 87 °F 69 °F 90 °F (1967)
Min Temperature 36 °F 41 °F 29 °F (1950)
Degree Days  
Heating Degree Days 3    
Month to date heating degree days  
Cooling Degree Days 0    
Month to date cooling degree days  
Growing Degree Days 12 (Base 50)    
Moisture  
Dew Point 30 °F    
Average Humidity 43    
Maximum Humidity 69    
Minimum Humidity 9    
Precipitation  
Precipitation 0.00 in 0.04 in 0.53 in (1984)
Month to date precipitation 0.12  
Year to date precipitation 14.77  
Sea Level Pressure  
Sea Level Pressure 29.98 in    
Wind  
Wind Speed 12 mph ()    
Max Wind Speed 44 mph    
Max Gust Speed 54 mph    
Visibility 9.7 miles    
Events      
T = Trace of Precipitation, MM = Missing Value Source: Averaged Metar Reports

Daily Weather History Graph

Daily Weather History Graph

Search for Another Location

Airport or City:

Trip Planner

Search our weather history database for the weather conditions in past years. The results will help you decide how hot, cold, wet, or windy it might be!

Date:

Astronomy

Oct. 03, 2012 Rise Set
Actual Time 6:54 AM MDT 6:33 PM MDT
Civil Twilight 6:27 AM MDT 7:00 PM MDT
Nautical Twilight 5:55 AM MDT 7:31 PM MDT
Astronomical Twilight 5:23 AM MDT 8:03 PM MDT
Moon 8:26 PM MDT 10:20 AM MDT
Length of Visible Light 12h 33m
Length of Day
11h 39m
Waning Gibbous, 88% of the Moon is Illuminated
Oct 3
Waning Gibbous
Oct 8
Last Quarter
Oct 15
New
Oct 21
First Quarter
Oct 29
Full

Hourly Weather History & Observations

Time (MDT) Temp. Windchill Dew Point Humidity Pressure Visibility Wind Dir Wind Speed Gust Speed Precip Events Conditions
12:15 AM 51.8 °F - 33.1 °F 49% 29.87 in 10.0 mi SW 4.6 mph - N/A   Clear
12:35 AM 50.5 °F - 33.4 °F 52% 29.87 in 10.0 mi SW 8.1 mph - N/A   Clear
12:55 AM 48.6 °F - 33.3 °F 56% 29.87 in 10.0 mi WSW 5.8 mph - N/A   Clear
1:15 AM 48.0 °F - 33.6 °F 57% 29.87 in 10.0 mi WSW 6.9 mph - N/A   Clear
3:15 AM 48.9 °F - 33.4 °F 55% 29.88 in 10.0 mi West 8.1 mph - N/A   Clear
3:35 AM 50.4 °F - 33.8 °F 53% 29.88 in 10.0 mi WSW 4.6 mph - N/A   Clear
3:55 AM 46.6 °F - 34.0 °F 62% 29.89 in 10.0 mi West 6.9 mph - N/A   Clear
4:15 AM 45.5 °F 43.2 °F 34.3 °F 65% 29.88 in 10.0 mi WSW 4.6 mph - N/A   Clear
4:35 AM 45.9 °F 43.6 °F 34.3 °F 64% 29.88 in 10.0 mi SSW 4.6 mph - N/A   Clear
5:15 AM 44.6 °F 40.7 °F 34.3 °F 67% 29.89 in 10.0 mi West 6.9 mph - N/A   Clear
5:35 AM 45.0 °F 40.1 °F 35.2 °F 69% 29.89 in 10.0 mi West 9.2 mph - N/A   Clear
5:55 AM 45.3 °F 41.6 °F 34.5 °F 66% 29.89 in 10.0 mi WSW 6.9 mph - N/A   Clear
6:15 AM 44.4 °F 39.5 °F 34.9 °F 69% 29.89 in 10.0 mi West 9.2 mph - N/A   Clear
6:35 AM 46.0 °F 42.5 °F 34.7 °F 65% 29.89 in 10.0 mi West 6.9 mph - N/A   Clear
6:55 AM 44.8 °F 41.0 °F 34.0 °F 66% 29.89 in 10.0 mi West 6.9 mph - N/A   Clear
7:15 AM 45.1 °F 42.8 °F 34.7 °F 67% 29.89 in 10.0 mi West 4.6 mph - N/A   Clear
7:35 AM 48.7 °F - 35.6 °F 60% 29.88 in 10.0 mi WSW 5.8 mph - N/A   Clear
7:55 AM 51.1 °F - 36.1 °F 57% 29.89 in 10.0 mi WSW 8.1 mph - N/A   Clear
8:15 AM 54.9 °F - 36.3 °F 50% 29.89 in 10.0 mi West 6.9 mph - N/A   Clear
8:35 AM 59.0 °F - 34.5 °F 40% 29.89 in 10.0 mi West 9.2 mph - N/A   Clear
9:15 AM 65.3 °F - 32.9 °F 30% 29.90 in 10.0 mi WSW 6.9 mph - N/A   Clear
9:35 AM 68.2 °F - 32.7 °F 27% 29.90 in 10.0 mi SW 5.8 mph - N/A   Clear
9:55 AM 69.8 °F - 32.0 °F 25% 29.89 in 10.0 mi WSW 6.9 mph - N/A   Clear
10:15 AM 73.2 °F - 32.5 °F 22% 29.88 in 10.0 mi WSW 8.1 mph - N/A   Clear
10:35 AM 72.1 °F - 34.5 °F 25% 29.88 in 10.0 mi WSW 4.6 mph - N/A   Clear
10:55 AM 76.1 °F - 33.8 °F 21% 29.89 in 10.0 mi WSW 8.1 mph - N/A   Clear
11:15 AM 78.8 °F - 32.7 °F 19% 29.88 in 10.0 mi WSW 8.1 mph - N/A   Clear
11:35 AM 79.7 °F - 31.5 °F 17% 29.87 in 10.0 mi West 10.4 mph - N/A   Clear
11:55 AM 81.9 °F - 30.4 °F 15% 29.87 in 10.0 mi West 10.4 mph - N/A   Clear
12:15 PM 84.2 °F - 27.5 °F 13% 29.86 in 10.0 mi WSW 12.7 mph 18.4 mph N/A   Clear
12:35 PM 85.5 °F - 23.4 °F 10% 29.85 in 10.0 mi WSW 18.4 mph 24.2 mph N/A   Clear
12:55 PM 86.0 °F - 23.4 °F 10% 29.84 in 10.0 mi WSW 16.1 mph 21.9 mph N/A   Clear
1:15 PM 85.8 °F - 22.6 °F 10% 29.83 in 10.0 mi SW 16.1 mph 21.9 mph N/A   Clear
1:35 PM 86.2 °F - 23.2 °F 10% 29.83 in 10.0 mi West 11.5 mph 20.7 mph N/A   Clear
1:55 PM 87.1 °F - 21.7 °F 9% 29.84 in 10.0 mi WNW 12.7 mph 23.0 mph N/A   Clear
2:15 PM 87.1 °F - 21.9 °F 9% 29.84 in 10.0 mi West 15.0 mph 26.5 mph N/A   Clear
2:35 PM 87.3 °F - 21.6 °F 9% 29.84 in 10.0 mi West 19.6 mph 27.6 mph N/A   Clear
2:55 PM 85.3 °F - 22.5 °F 10% 29.84 in 10.0 mi West 15.0 mph 21.9 mph N/A   Clear
3:15 PM 83.1 °F - 22.6 °F 11% 29.84 in 10.0 mi WSW 11.5 mph - N/A   Clear
3:35 PM 84.9 °F - 21.7 °F 10% 29.84 in 10.0 mi West 11.5 mph 19.6 mph N/A   Clear
3:55 PM 82.0 °F - 25.3 °F 13% 29.87 in 10.0 mi NNE 24.2 mph 40.3 mph N/A   Clear
4:15 PM 75.0 °F - 27.3 °F 17% 29.89 in 10.0 mi North 32.2 mph 38.0 mph N/A   Clear
4:35 PM 70.7 °F - 30.7 °F 23% 29.91 in 10.0 mi North 34.5 mph 40.3 mph N/A   Clear
4:55 PM 66.2 °F - 32.2 °F 28% 29.94 in 5.0 mi North 36.8 mph 46.0 mph N/A   Haze
5:15 PM 61.5 °F - 32.2 °F 33% 29.95 in 7.0 mi North 39.1 mph 49.5 mph N/A   Clear
5:35 PM 56.7 °F - 32.9 °F 41% 29.97 in 7.0 mi North 42.6 mph 49.5 mph N/A   Clear
5:55 PM 55.2 °F - 32.9 °F 43% 29.99 in 7.0 mi North 34.5 mph 47.2 mph N/A   Clear
6:15 PM 52.9 °F - 32.4 °F 46% 30.02 in 5.0 mi North 41.4 mph 51.8 mph N/A   Clear
6:35 PM 51.3 °F - 32.0 °F 48% 30.04 in 7.0 mi North 43.7 mph 54.1 mph N/A   Clear
6:55 PM 50.0 °F - 32.0 °F 50% 30.06 in 10.0 mi North 39.1 mph 49.5 mph N/A   Clear
7:15 PM 48.2 °F - 31.8 °F 53% 30.09 in 10.0 mi North 36.8 mph 46.0 mph N/A   Clear
7:35 PM 46.6 °F - 31.6 °F 56% 30.13 in 10.0 mi North 34.5 mph 47.2 mph N/A   Clear
7:55 PM 45.7 °F 35.3 °F 31.6 °F 58% 30.16 in 10.0 mi North 36.8 mph 47.2 mph N/A   Scattered Clouds
8:15 PM 44.1 °F 33.5 °F 31.1 °F 60% 30.22 in 10.0 mi North 33.4 mph 43.7 mph N/A   Scattered Clouds
8:35 PM 43.5 °F 34.0 °F 30.2 °F 59% 30.25 in 10.0 mi North 25.3 mph 40.3 mph N/A   Clear
8:55 PM 42.4 °F 32.2 °F 29.3 °F 60% 30.28 in 10.0 mi North 27.6 mph 32.2 mph N/A   Clear
9:15 PM 41.9 °F 32.8 °F 29.1 °F 61% 30.30 in 10.0 mi North 20.7 mph 25.3 mph N/A   Clear
9:35 PM 41.0 °F 31.6 °F 28.4 °F 61% 30.30 in 10.0 mi North 20.7 mph 27.6 mph N/A   Clear
9:55 PM 40.5 °F 31.8 °F 28.2 °F 62% 30.33 in 10.0 mi NNW 17.3 mph 21.9 mph N/A   Clear
10:15 PM 39.2 °F 32.5 °F 28.2 °F 65% 30.33 in 10.0 mi NNW 10.4 mph - N/A   Clear
10:35 PM 38.3 °F 32.5 °F 28.0 °F 67% 30.35 in 10.0 mi NNW 8.1 mph - N/A   Clear
10:55 PM 37.4 °F 30.8 °F 27.9 °F 68% 30.34 in 10.0 mi NNW 9.2 mph - N/A   Clear
11:15 PM 37.6 °F 28.4 °F 26.6 °F 65% 30.36 in 10.0 mi NNW 16.1 mph 23.0 mph N/A   Clear
11:35 PM 37.4 °F 28.5 °F 26.4 °F 65% 30.34 in 10.0 mi NNW 15.0 mph 23.0 mph N/A   Clear
11:55 PM 36.7 °F 28.9 °F 26.4 °F 66% 30.35 in 10.0 mi NNW 11.5 mph 17.3 mph N/A   Scattered Clouds